Time;durP1;ratioP1;P1;durP2;ratioP2;P2;SDS_P1;SDS_P2;PMS_P1;PMS_P2;Temp;Humidity;BMP_temperature;BMP_pressure;BME280_temperature;BME280_humidity;BME280_pressure;Samples;Min_cycle;Max_cycle;Signal;HPM_P1;HPM_P2
2021/12/04 00:00:47;;;;;;;;;;;2.60;99.90;;;;;;5092223;28;20347;-48
2021/12/04 00:03:14;;;;;;;;;;;2.70;99.90;;;;;;5097534;22;19933;-53
2021/12/04 00:05:45;;;;;;;;;;;2.70;99.90;;;;;;5075202;28;19939;-53
2021/12/04 00:08:12;;;;;;;;;;;2.70;99.90;;;;;;5074538;28;20402;-53
2021/12/04 00:10:39;;;;;;;;;;;2.80;99.90;;;;;;5069178;28;19925;-53
2021/12/04 00:13:07;;;;;;;;;;;2.90;99.90;;;;;;5064556;28;19967;-53
2021/12/04 00:15:34;;;;;;;;;;;3.20;99.90;;;;;;5071955;28;19978;-52
2021/12/04 00:18:01;;;;;;;;;;;3.20;99.90;;;;;;5070582;28;20356;-52
2021/12/04 00:20:30;;;;;;;;;;;3.40;99.90;;;;;;5074414;28;19925;-53
2021/12/04 00:22:59;;;;;;;;;;;3.50;99.90;;;;;;5071985;28;19924;-53
2021/12/04 00:25:26;;;;;;;;;;;3.30;99.90;;;;;;5071767;28;20011;-53
2021/12/04 00:27:53;;;;;;;;;;;3.40;99.90;;;;;;5072176;28;19928;-54
2021/12/04 00:30:21;;;;;;;;;;;3.40;99.90;;;;;;5071715;28;19928;-56
2021/12/04 00:32:56;;;;;;;;;;;3.50;99.90;;;;;;5084910;28;20340;-52
2021/12/04 00:35:34;;;;;;;;;;;3.50;99.90;;;;;;5078582;28;19930;-54
2021/12/04 00:43:14;;;;;;;;;;;3.40;99.90;;;;;;5071700;28;19931;-53
2021/12/04 00:49:12;;;;;;;;;;;3.00;99.90;;;;;;5071838;28;20050;-54
2021/12/04 00:51:40;;;;;;;;;;;3.00;99.90;;;;;;5070957;28;20290;-54
2021/12/04 00:54:09;;;;;;;;;;;2.90;99.90;;;;;;5066154;28;20016;-54
2021/12/04 00:56:36;;;;;;;;;;;2.90;99.90;;;;;;5051615;28;19936;-53
2021/12/04 00:59:03;;;;;;;;;;;2.90;99.90;;;;;;5051856;28;19925;-53
2021/12/04 01:01:31;;;;;;;;;;;2.70;99.90;;;;;;5051548;28;19978;-53
2021/12/04 01:03:58;;;;;;;;;;;2.90;99.90;;;;;;5057396;28;19932;-53
2021/12/04 01:06:25;;;;;;;;;;;3.10;99.90;;;;;;5071499;28;19924;-53
2021/12/04 01:08:52;;;;;;;;;;;3.00;99.90;;;;;;5071664;28;19994;-53
2021/12/04 01:11:19;;;;;;;;;;;3.30;99.90;;;;;;5069185;28;19994;-53
2021/12/04 01:13:45;;;;;;;;;;;3.30;99.90;;;;;;5071861;28;19932;-53
2021/12/04 01:16:14;;;;;;;;;;;3.30;99.90;;;;;;5071676;28;19993;-54
2021/12/04 01:18:43;;;;;;;;;;;2.80;99.90;;;;;;5071876;28;19929;-53
2021/12/04 01:21:10;;;;;;;;;;;2.70;99.90;;;;;;5071591;28;19928;-54
2021/12/04 01:23:37;;;;;;;;;;;2.50;99.90;;;;;;5075010;28;19928;-53
2021/12/04 01:26:03;;;;;;;;;;;2.50;99.90;;;;;;5055323;28;19929;-53
2021/12/04 01:28:30;;;;;;;;;;;2.50;99.90;;;;;;5055701;28;19986;-53
2021/12/04 01:30:57;;;;;;;;;;;2.30;99.90;;;;;;5057816;28;20475;-53
2021/12/04 01:33:24;;;;;;;;;;;2.30;99.90;;;;;;5073685;28;20306;-53
2021/12/04 01:35:52;;;;;;;;;;;2.30;99.90;;;;;;5055162;28;19925;-54
2021/12/04 01:38:18;;;;;;;;;;;2.20;99.90;;;;;;5054798;28;19924;-54
2021/12/04 01:40:45;;;;;;;;;;;2.30;99.90;;;;;;5055388;28;19978;-53
2021/12/04 01:43:12;;;;;;;;;;;2.10;99.90;;;;;;5074777;28;19925;-55
2021/12/04 01:45:39;;;;;;;;;;;2.20;99.90;;;;;;5074342;28;19994;-54
2021/12/04 01:48:06;;;;;;;;;;;2.20;99.90;;;;;;5074980;28;19924;-53
2021/12/04 01:50:34;;;;;;;;;;;2.30;99.90;;;;;;5072723;28;20348;-53
2021/12/04 01:53:02;;;;;;;;;;;2.20;99.90;;;;;;5076333;28;19924;-55
2021/12/04 01:55:30;;;;;;;;;;;2.00;99.90;;;;;;5070872;28;19924;-54
2021/12/04 01:57:57;;;;;;;;;;;2.10;99.90;;;;;;5076290;28;19924;-53
2021/12/04 02:00:24;;;;;;;;;;;2.30;99.90;;;;;;5074337;28;19925;-53
2021/12/04 02:02:51;;;;;;;;;;;2.40;99.90;;;;;;5073497;28;20385;-55
2021/12/04 02:05:17;;;;;;;;;;;2.30;99.90;;;;;;5072200;28;19928;-53
2021/12/04 02:07:44;;;;;;;;;;;2.30;99.90;;;;;;5065187;28;19928;-53
2021/12/04 02:10:12;;;;;;;;;;;2.20;99.90;;;;;;5068645;28;19924;-54
2021/12/04 02:12:40;;;;;;;;;;;2.10;99.90;;;;;;5070131;28;19977;-54
2021/12/04 02:15:11;;;;;;;;;;;2.20;99.90;;;;;;5061473;28;19925;-54
2021/12/04 02:17:37;;;;;;;;;;;2.10;99.90;;;;;;5054263;28;19925;-54
2021/12/04 02:20:09;;;;;;;;;;;2.10;99.90;;;;;;5055663;28;19991;-54
2021/12/04 02:22:36;;;;;;;;;;;2.10;99.90;;;;;;5072338;28;19925;-54
2021/12/04 02:25:04;;;;;;;;;;;2.40;99.90;;;;;;5062712;28;20452;-55
2021/12/04 02:27:31;;;;;;;;;;;2.40;99.90;;;;;;5073996;28;20475;-54
2021/12/04 02:29:58;;;;;;;;;;;2.40;99.90;;;;;;5060477;28;20165;-53
2021/12/04 02:32:24;;;;;;;;;;;2.40;99.90;;;;;;5069041;28;19924;-53
2021/12/04 02:34:51;;;;;;;;;;;2.30;99.90;;;;;;5065460;28;19924;-54
2021/12/04 02:37:19;;;;;;;;;;;2.30;99.90;;;;;;5069532;28;19928;-54
2021/12/04 02:39:55;;;;;;;;;;;2.50;99.90;;;;;;5065570;28;20441;-54
2021/12/04 02:42:23;;;;;;;;;;;2.40;99.90;;;;;;5068217;28;19929;-53
2021/12/04 02:44:50;;;;;;;;;;;2.30;99.90;;;;;;5055141;28;19925;-54
2021/12/04 02:47:17;;;;;;;;;;;2.40;99.90;;;;;;5061028;28;20375;-53
2021/12/04 02:49:44;;;;;;;;;;;2.40;99.90;;;;;;5076112;28;20340;-54
2021/12/04 02:52:12;;;;;;;;;;;2.40;99.90;;;;;;5093747;28;19985;-54
2021/12/04 02:54:40;;;;;;;;;;;2.40;99.90;;;;;;5074015;28;19932;-53
2021/12/04 02:57:08;;;;;;;;;;;2.30;99.90;;;;;;5068878;28;19931;-54
2021/12/04 02:59:37;;;;;;;;;;;2.40;99.90;;;;;;5069609;28;20356;-53
2021/12/04 03:02:04;;;;;;;;;;;2.30;99.90;;;;;;5073392;28;19932;-53
2021/12/04 03:04:32;;;;;;;;;;;2.30;99.90;;;;;;5072856;28;20325;-53
2021/12/04 03:07:00;;;;;;;;;;;2.30;99.90;;;;;;5069882;28;19928;-53
2021/12/04 03:09:27;;;;;;;;;;;2.20;99.90;;;;;;5071440;28;19924;-53
2021/12/04 03:11:55;;;;;;;;;;;2.20;99.90;;;;;;5071824;28;19939;-53
2021/12/04 03:14:22;;;;;;;;;;;2.10;99.90;;;;;;5072464;28;19981;-53
2021/12/04 03:16:49;;;;;;;;;;;2.10;99.90;;;;;;5073470;28;19929;-53
2021/12/04 03:19:17;;;;;;;;;;;2.00;99.90;;;;;;5073459;28;19978;-53
2021/12/04 03:21:44;;;;;;;;;;;2.10;99.90;;;;;;5072428;28;20395;-54
2021/12/04 03:24:14;;;;;;;;;;;2.20;99.90;;;;;;5072230;28;19924;-53
2021/12/04 03:26:41;;;;;;;;;;;2.10;99.90;;;;;;5072884;28;20446;-53
2021/12/04 03:29:12;;;;;;;;;;;2.10;99.90;;;;;;5073045;28;19931;-53
2021/12/04 03:31:52;;;;;;;;;;;2.10;99.90;;;;;;5072557;28;19928;-53
2021/12/04 03:42:28;;;;;;;;;;;2.10;99.90;;;;;;5072361;28;19927;-53
2021/12/04 03:44:56;;;;;;;;;;;2.00;99.90;;;;;;5072019;28;19932;-54
2021/12/04 03:47:23;;;;;;;;;;;2.20;99.90;;;;;;5072103;28;20393;-53
2021/12/04 03:49:51;;;;;;;;;;;2.10;99.90;;;;;;5071716;28;20360;-53
2021/12/04 03:52:18;;;;;;;;;;;2.10;99.90;;;;;;5069016;28;19977;-54
2021/12/04 03:54:45;;;;;;;;;;;2.10;99.90;;;;;;5072015;28;19928;-53
2021/12/04 03:57:12;;;;;;;;;;;2.30;99.90;;;;;;5072692;28;19970;-53
2021/12/04 03:59:39;;;;;;;;;;;2.40;99.90;;;;;;5072567;28;19978;-53
2021/12/04 04:02:08;;;;;;;;;;;2.60;99.90;;;;;;5071783;28;20386;-53
2021/12/04 04:04:35;;;;;;;;;;;2.70;99.90;;;;;;5055166;28;20268;-53
2021/12/04 04:07:02;;;;;;;;;;;2.70;99.90;;;;;;5061463;28;20306;-53
2021/12/04 04:09:29;;;;;;;;;;;2.60;99.90;;;;;;5071761;28;19925;-53
2021/12/04 04:11:56;;;;;;;;;;;2.70;99.90;;;;;;5071968;28;19924;-52
2021/12/04 04:14:24;;;;;;;;;;;2.70;99.90;;;;;;5058312;28;19932;-52
2021/12/04 04:16:52;;;;;;;;;;;2.70;99.90;;;;;;5052227;28;20383;-53
2021/12/04 04:19:21;;;;;;;;;;;2.70;99.90;;;;;;5057652;28;19928;-54
2021/12/04 04:21:52;;;;;;;;;;;2.70;99.90;;;;;;5072189;28;19924;-54
2021/12/04 04:24:18;;;;;;;;;;;2.80;99.90;;;;;;5060180;28;19924;-52
2021/12/04 04:26:46;;;;;;;;;;;2.70;99.90;;;;;;5060095;28;20283;-55
2021/12/04 04:29:14;;;;;;;;;;;2.80;99.90;;;;;;5072161;28;19970;-52
2021/12/04 04:31:46;;;;;;;;;;;2.90;99.90;;;;;;5072030;28;19924;-53
2021/12/04 04:34:13;;;;;;;;;;;3.10;99.90;;;;;;5071578;28;19925;-53
2021/12/04 04:36:55;;;;;;;;;;;3.00;99.90;;;;;;5071694;28;20422;-53
2021/12/04 04:39:44;;;;;;;;;;;2.90;99.90;;;;;;5072056;28;19991;-53
2021/12/04 04:58:57;;;;;;;;;;;3.10;99.90;;;;;;5075661;28;19928;-53
2021/12/04 05:01:57;;;;;;;;;;;3.10;99.90;;;;;;5075674;28;19928;-53
2021/12/04 05:12:49;;;;;;;;;;;3.30;99.90;;;;;;5075348;28;19932;-53
2021/12/04 05:15:21;;;;;;;;;;;3.30;99.90;;;;;;5074219;28;19936;-53
2021/12/04 05:18:05;;;;;;;;;;;3.30;99.90;;;;;;5074521;28;19931;-54
2021/12/04 05:20:35;;;;;;;;;;;3.40;99.90;;;;;;5075394;28;19924;-54
2021/12/04 05:23:02;;;;;;;;;;;3.50;99.90;;;;;;5074581;28;19925;-53
2021/12/04 05:25:31;;;;;;;;;;;3.60;99.90;;;;;;5074198;28;19924;-54
2021/12/04 05:27:58;;;;;;;;;;;3.60;99.90;;;;;;5075259;28;19929;-53
2021/12/04 05:30:25;;;;;;;;;;;3.50;99.90;;;;;;5075191;28;19924;-54
2021/12/04 05:32:52;;;;;;;;;;;3.60;99.90;;;;;;5065518;28;19932;-52
2021/12/04 05:35:19;;;;;;;;;;;3.60;99.90;;;;;;5072305;28;19931;-54
2021/12/04 05:37:46;;;;;;;;;;;3.70;99.90;;;;;;5075334;28;19925;-53
2021/12/04 05:40:15;;;;;;;;;;;3.60;99.90;;;;;;5075106;28;20456;-53
2021/12/04 05:42:47;;;;;;;;;;;3.70;99.90;;;;;;5074423;28;20018;-53
2021/12/04 05:45:18;;;;;;;;;;;3.80;99.90;;;;;;5074687;28;19924;-53
2021/12/04 05:47:49;;;;;;;;;;;3.90;99.90;;;;;;5075061;28;20019;-54
2021/12/04 05:50:33;;;;;;;;;;;4.00;99.90;;;;;;5074845;28;19925;-56
2021/12/04 05:53:14;;;;;;;;;;;4.10;99.90;;;;;;5064834;28;19931;-53
2021/12/04 05:55:51;;;;;;;;;;;4.00;99.90;;;;;;5074908;28;19928;-54
2021/12/04 05:58:19;;;;;;;;;;;4.00;99.90;;;;;;5074953;28;19928;-53
2021/12/04 06:00:46;;;;;;;;;;;4.10;99.90;;;;;;5074531;28;19970;-53
2021/12/04 06:03:13;;;;;;;;;;;4.10;99.90;;;;;;5093965;22;20545;-46
2021/12/04 06:05:40;;;;;;;;;;;4.00;99.90;;;;;;5050107;28;20390;-46
2021/12/04 06:08:07;;;;;;;;;;;4.00;99.90;;;;;;5048692;28;19979;-45
2021/12/04 06:10:33;;;;;;;;;;;4.10;99.90;;;;;;5054369;28;19925;-46
2021/12/04 06:13:00;;;;;;;;;;;4.10;99.90;;;;;;5036572;28;20055;-45
2021/12/04 06:15:28;;;;;;;;;;;4.20;99.90;;;;;;5034435;28;20481;-46
2021/12/04 06:17:57;;;;;;;;;;;4.10;99.90;;;;;;5034678;28;19929;-46
2021/12/04 06:23:09;;;;;;;;;;;4.30;99.90;;;;;;5034439;28;20013;-46
2021/12/04 06:25:36;;;;;;;;;;;4.30;99.90;;;;;;5034299;28;19925;-46
2021/12/04 06:28:03;;;;;;;;;;;4.30;99.90;;;;;;5034500;28;19971;-46
2021/12/04 06:30:35;;;;;;;;;;;4.40;99.90;;;;;;5034216;28;19925;-46
2021/12/04 06:33:02;;;;;;;;;;;4.40;99.90;;;;;;5034293;28;19995;-46
2021/12/04 06:35:29;;;;;;;;;;;4.30;99.90;;;;;;5034108;28;19948;-45
2021/12/04 06:37:56;;;;;;;;;;;4.30;99.90;;;;;;5045718;28;19929;-46
2021/12/04 06:40:26;;;;;;;;;;;4.30;99.90;;;;;;5053789;28;19933;-45
2021/12/04 06:42:53;;;;;;;;;;;4.30;99.90;;;;;;5053892;28;20031;-45
2021/12/04 06:45:20;;;;;;;;;;;4.30;99.90;;;;;;5054112;28;19931;-45
2021/12/04 06:47:52;;;;;;;;;;;4.30;99.90;;;;;;5043107;28;19971;-46
2021/12/04 06:50:26;;;;;;;;;;;4.40;99.90;;;;;;5032912;28;20307;-47
2021/12/04 06:52:56;;;;;;;;;;;4.40;99.90;;;;;;5033831;28;19925;-46
2021/12/04 06:55:28;;;;;;;;;;;4.40;99.90;;;;;;5033717;28;20024;-45
2021/12/04 06:57:55;;;;;;;;;;;4.50;99.90;;;;;;5044882;28;19924;-46
2021/12/04 07:00:23;;;;;;;;;;;4.50;99.90;;;;;;5047858;28;19929;-46
2021/12/04 07:02:53;;;;;;;;;;;4.50;99.90;;;;;;5034120;28;19926;-46
2021/12/04 07:05:20;;;;;;;;;;;4.40;99.90;;;;;;5053016;28;19925;-46
2021/12/04 07:07:50;;;;;;;;;;;4.60;99.90;;;;;;5052356;28;19925;-46
2021/12/04 07:10:17;;;;;;;;;;;4.50;99.90;;;;;;5053331;28;19924;-46
2021/12/04 07:12:43;;;;;;;;;;;4.60;99.90;;;;;;5053376;28;19924;-46
2021/12/04 07:15:11;;;;;;;;;;;4.80;99.90;;;;;;5053325;28;20369;-46
2021/12/04 07:17:38;;;;;;;;;;;4.70;99.90;;;;;;5044617;28;19929;-46
2021/12/04 07:20:08;;;;;;;;;;;4.80;99.90;;;;;;5032303;28;19926;-47
2021/12/04 07:22:35;;;;;;;;;;;4.70;99.90;;;;;;5033330;28;19925;-47
2021/12/04 07:25:03;;;;;;;;;;;4.80;99.90;;;;;;5040840;28;19929;-46
2021/12/04 07:27:29;;;;;;;;;;;4.90;99.90;;;;;;5037155;28;19932;-47
2021/12/04 07:29:56;;;;;;;;;;;4.70;99.90;;;;;;5042670;28;19924;-46
2021/12/04 07:32:24;;;;;;;;;;;4.70;99.90;;;;;;5039700;28;20465;-47
2021/12/04 07:34:53;;;;;;;;;;;4.80;99.90;;;;;;5052675;28;19924;-48
2021/12/04 07:37:21;;;;;;;;;;;4.90;99.90;;;;;;5042226;28;20379;-49
2021/12/04 07:39:48;;;;;;;;;;;4.90;99.90;;;;;;5052794;28;19925;-47
2021/12/04 07:42:15;;;;;;;;;;;5.00;99.90;;;;;;5052738;28;19971;-48
2021/12/04 07:44:41;;;;;;;;;;;5.20;99.90;;;;;;5052730;28;19925;-48
2021/12/04 07:47:08;;;;;;;;;;;5.20;99.90;;;;;;5048240;28;20533;-47
2021/12/04 07:49:37;;;;;;;;;;;5.10;99.90;;;;;;5035662;28;19947;-47
2021/12/04 07:52:04;;;;;;;;;;;5.10;99.90;;;;;;5052149;28;20391;-47
2021/12/04 07:54:32;;;;;;;;;;;5.00;99.90;;;;;;5052454;28;19924;-48
2021/12/04 07:56:59;;;;;;;;;;;5.10;99.90;;;;;;5050048;28;19925;-48
2021/12/04 07:59:26;;;;;;;;;;;5.00;99.90;;;;;;5036680;28;19979;-48
2021/12/04 08:01:53;;;;;;;;;;;5.00;99.90;;;;;;5044464;28;19925;-47
2021/12/04 08:04:20;;;;;;;;;;;5.10;99.90;;;;;;5052233;28;19929;-48
2021/12/04 08:06:46;;;;;;;;;;;5.10;99.90;;;;;;5041605;28;19986;-47
2021/12/04 08:09:13;;;;;;;;;;;5.30;99.90;;;;;;5049815;28;19994;-48
2021/12/04 08:11:41;;;;;;;;;;;5.30;99.90;;;;;;5051316;28;20387;-47
2021/12/04 08:14:08;;;;;;;;;;;5.20;99.90;;;;;;5048119;28;19925;-48
2021/12/04 08:16:39;;;;;;;;;;;5.20;99.90;;;;;;5051031;28;19924;-46
2021/12/04 08:19:11;;;;;;;;;;;5.30;99.90;;;;;;5048708;28;19925;-46
2021/12/04 08:21:45;;;;;;;;;;;5.30;99.90;;;;;;5052067;28;19986;-48
2021/12/04 08:24:12;;;;;;;;;;;5.40;99.90;;;;;;5047344;28;19925;-46
2021/12/04 08:26:44;;;;;;;;;;;5.40;99.90;;;;;;5039501;28;19971;-47
2021/12/04 08:29:18;;;;;;;;;;;5.30;99.90;;;;;;5038933;28;19926;-48
2021/12/04 08:31:47;;;;;;;;;;;5.30;99.90;;;;;;5059023;28;19925;-45
2021/12/04 08:34:15;;;;;;;;;;;5.20;99.90;;;;;;5055418;28;20371;-47
2021/12/04 08:36:42;;;;;;;;;;;5.10;99.90;;;;;;5049901;28;19925;-47
2021/12/04 08:39:10;;;;;;;;;;;5.30;99.90;;;;;;5033129;28;19929;-48
2021/12/04 08:41:38;;;;;;;;;;;5.40;99.90;;;;;;5047635;28;19950;-47
2021/12/04 08:44:07;;;;;;;;;;;5.40;99.90;;;;;;5051810;28;20314;-48
2021/12/04 08:46:35;;;;;;;;;;;5.40;99.90;;;;;;5050146;28;20430;-46
2021/12/04 08:49:03;;;;;;;;;;;5.40;99.90;;;;;;5050962;28;19925;-47
2021/12/04 08:51:30;;;;;;;;;;;5.40;99.90;;;;;;5051669;28;19929;-48
2021/12/04 08:54:00;;;;;;;;;;;5.40;99.90;;;;;;5046789;28;19971;-46
2021/12/04 08:56:27;;;;;;;;;;;5.50;99.90;;;;;;5050965;28;19924;-47
2021/12/04 08:58:54;;;;;;;;;;;5.50;99.90;;;;;;5051688;28;20380;-46
2021/12/04 09:01:25;;;;;;;;;;;5.50;99.90;;;;;;5048274;28;20387;-46
2021/12/04 09:03:53;;;;;;;;;;;5.50;99.90;;;;;;5040788;28;19982;-46
2021/12/04 09:06:20;;;;;;;;;;;5.50;99.90;;;;;;5045020;28;19924;-47
2021/12/04 09:08:48;;;;;;;;;;;5.60;99.90;;;;;;5050444;28;19928;-47
2021/12/04 09:11:16;;;;;;;;;;;5.60;99.90;;;;;;5051444;28;20015;-47
2021/12/04 09:13:43;;;;;;;;;;;5.50;99.90;;;;;;5051552;28;19951;-47
2021/12/04 09:16:10;;;;;;;;;;;5.60;99.90;;;;;;5047555;28;19951;-46
2021/12/04 09:18:38;;;;;;;;;;;5.60;99.90;;;;;;5044461;28;19932;-45
2021/12/04 09:21:05;;;;;;;;;;;5.50;99.90;;;;;;5048905;28;20038;-47
2021/12/04 09:23:35;;;;;;;;;;;5.50;99.90;;;;;;5050966;28;19925;-47
2021/12/04 09:26:02;;;;;;;;;;;5.50;99.90;;;;;;5051064;28;20345;-45
2021/12/04 09:28:39;;;;;;;;;;;5.60;99.90;;;;;;5050569;28;20160;-48
2021/12/04 09:34:06;;;;;;;;;;;5.60;99.90;;;;;;5038060;28;20035;-47
2021/12/04 09:37:01;;;;;;;;;;;5.40;99.90;;;;;;5051348;28;20382;-47
2021/12/04 10:01:49;;;;;;;;;;;5.80;99.90;;;;;;5053344;28;19927;-47
2021/12/04 10:13:08;;;;;;;;;;;6.20;99.90;;;;;;5047261;28;19928;-46
2021/12/04 10:18:48;;;;;;;;;;;6.20;99.90;;;;;;4982779;28;19930;-47
2021/12/04 10:35:09;;;;;;;;;;;6.80;99.90;;;;;;5053972;28;19921;-46
2021/12/04 10:37:44;;;;;;;;;;;6.80;99.90;;;;;;5044903;28;20377;-47
2021/12/04 10:40:14;;;;;;;;;;;6.70;99.90;;;;;;5054167;28;19971;-47
2021/12/04 10:42:42;;;;;;;;;;;6.80;99.90;;;;;;5053248;28;19928;-47
2021/12/04 10:45:09;;;;;;;;;;;6.90;99.90;;;;;;5053720;28;19925;-48
2021/12/04 10:47:36;;;;;;;;;;;7.00;99.90;;;;;;5051856;28;19925;-47
2021/12/04 10:50:12;;;;;;;;;;;7.10;99.90;;;;;;5035516;28;20889;-48
2021/12/04 10:52:49;;;;;;;;;;;7.00;99.90;;;;;;5053318;28;20330;-47
2021/12/04 10:55:21;;;;;;;;;;;7.10;99.90;;;;;;5052674;28;19925;-48
2021/12/04 11:00:45;;;;;;;;;;;6.90;99.90;;;;;;5052525;28;19928;-48
2021/12/04 11:03:26;;;;;;;;;;;6.80;99.90;;;;;;5046279;28;20016;-48
2021/12/04 11:22:45;;;;;;;;;;;6.80;99.90;;;;;;5010476;28;19921;-47
2021/12/04 11:25:37;;;;;;;;;;;6.60;99.90;;;;;;5033027;28;19925;-48
2021/12/04 11:36:31;;;;;;;;;;;6.30;99.90;;;;;;5038958;28;19928;-47
2021/12/04 11:39:10;;;;;;;;;;;6.30;99.90;;;;;;5052246;28;20310;-49
2021/12/04 11:41:40;;;;;;;;;;;6.20;99.90;;;;;;5052586;28;19925;-48
2021/12/04 11:44:11;;;;;;;;;;;6.10;99.90;;;;;;5052689;28;19979;-48
2021/12/04 11:46:44;;;;;;;;;;;6.10;99.90;;;;;;5052981;28;20027;-50
2021/12/04 11:49:12;;;;;;;;;;;5.90;99.90;;;;;;5050632;28;19929;-48
2021/12/04 11:51:46;;;;;;;;;;;5.80;99.90;;;;;;5047557;28;19929;-47
2021/12/04 11:54:13;;;;;;;;;;;5.90;99.90;;;;;;5039429;28;20011;-46
2021/12/04 11:56:42;;;;;;;;;;;6.00;99.90;;;;;;5050828;28;19975;-46
2021/12/04 11:59:10;;;;;;;;;;;6.00;99.90;;;;;;5052209;28;19925;-47
2021/12/04 12:01:38;;;;;;;;;;;6.10;99.90;;;;;;5050729;28;19925;-47
2021/12/04 12:04:07;;;;;;;;;;;5.90;99.90;;;;;;5043854;28;19925;-47
2021/12/04 12:06:36;;;;;;;;;;;5.70;99.90;;;;;;5051934;28;20454;-47
2021/12/04 12:09:07;;;;;;;;;;;5.60;99.90;;;;;;5048264;28;19925;-47
2021/12/04 12:11:34;;;;;;;;;;;5.60;99.90;;;;;;5054060;28;19925;-46
2021/12/04 12:14:05;;;;;;;;;;;5.50;99.90;;;;;;5051942;28;19935;-46
2021/12/04 12:16:37;;;;;;;;;;;5.80;99.90;;;;;;5050851;28;19940;-46
2021/12/04 12:19:07;;;;;;;;;;;5.80;99.90;;;;;;5052227;28;19932;-46
2021/12/04 12:21:42;;;;;;;;;;;5.70;99.90;;;;;;5051813;28;19925;-46
2021/12/04 12:24:15;;;;;;;;;;;5.80;99.90;;;;;;5052090;28;20019;-48
2021/12/04 12:27:01;;;;;;;;;;;5.90;99.90;;;;;;5052393;28;19950;-47
2021/12/04 12:32:38;;;;;;;;;;;5.90;99.90;;;;;;5051901;28;19928;-48
2021/12/04 12:37:56;;;;;;;;;;;5.80;99.90;;;;;;5030720;28;19921;-47
2021/12/04 12:40:28;;;;;;;;;;;5.80;99.90;;;;;;5031751;28;19936;-46
2021/12/04 12:42:55;;;;;;;;;;;5.80;99.90;;;;;;5035840;28;19945;-46
2021/12/04 12:45:23;;;;;;;;;;;5.90;99.90;;;;;;5036533;28;19932;-46
2021/12/04 12:47:53;;;;;;;;;;;5.80;99.90;;;;;;5068901;28;19974;-46
2021/12/04 12:50:27;;;;;;;;;;;5.90;99.90;;;;;;5071663;28;19925;-46
2021/12/04 12:53:01;;;;;;;;;;;5.80;99.90;;;;;;5055280;28;19929;-46
2021/12/04 12:55:32;;;;;;;;;;;5.70;99.90;;;;;;5052004;28;19929;-47
2021/12/04 12:57:59;;;;;;;;;;;5.80;99.90;;;;;;5052027;28;19924;-47
2021/12/04 13:11:42;;;;;;;;;;;5.60;99.90;;;;;;5031554;28;20364;-48
2021/12/04 13:14:09;;;;;;;;;;;5.70;99.90;;;;;;5031709;28;20375;-48
2021/12/04 13:16:36;;;;;;;;;;;5.60;99.90;;;;;;5031678;28;19951;-48
2021/12/04 13:19:08;;;;;;;;;;;5.80;99.90;;;;;;5036648;28;19971;-48
2021/12/04 13:21:36;;;;;;;;;;;5.80;99.90;;;;;;5055355;28;19924;-48
2021/12/04 13:24:04;;;;;;;;;;;5.80;99.90;;;;;;5047295;28;19925;-47
2021/12/04 13:26:33;;;;;;;;;;;5.80;99.90;;;;;;5048911;28;19929;-46
2021/12/04 13:29:03;;;;;;;;;;;5.80;99.90;;;;;;5049587;28;19932;-47
2021/12/04 13:31:31;;;;;;;;;;;5.80;99.90;;;;;;5037103;28;20329;-47
2021/12/04 13:33:57;;;;;;;;;;;5.80;99.90;;;;;;5103757;22;20393;-52
2021/12/04 13:36:26;;;;;;;;;;;5.70;99.90;;;;;;5109854;28;20270;-52
2021/12/04 13:38:56;;;;;;;;;;;5.80;99.90;;;;;;5115591;28;19928;-51
2021/12/04 13:41:23;;;;;;;;;;;5.80;99.90;;;;;;5115106;28;19931;-52
2021/12/04 13:43:51;;;;;;;;;;;6.00;99.90;;;;;;5115564;28;19969;-51
2021/12/04 13:46:17;;;;;;;;;;;6.30;99.90;;;;;;5115733;28;19924;-52
2021/12/04 13:48:44;;;;;;;;;;;6.20;99.90;;;;;;5109370;28;19992;-51
2021/12/04 13:51:11;;;;;;;;;;;5.90;99.90;;;;;;5113579;28;19924;-51
2021/12/04 13:53:40;;;;;;;;;;;5.60;99.90;;;;;;5115112;28;19932;-51
2021/12/04 13:56:09;;;;;;;;;;;5.60;99.90;;;;;;5115323;28;20350;-52
2021/12/04 13:58:44;;;;;;;;;;;5.60;99.90;;;;;;5115358;28;19931;-52
2021/12/04 14:01:11;;;;;;;;;;;5.70;99.90;;;;;;5114292;28;19978;-52
2021/12/04 14:03:38;;;;;;;;;;;5.80;99.90;;;;;;5113063;28;19977;-52
2021/12/04 14:06:09;;;;;;;;;;;5.80;99.90;;;;;;5103713;28;20412;-52
2021/12/04 14:08:36;;;;;;;;;;;5.70;99.90;;;;;;5115381;28;19932;-51
2021/12/04 14:11:04;;;;;;;;;;;5.50;99.90;;;;;;5113992;28;19923;-52
2021/12/04 14:13:31;;;;;;;;;;;5.60;99.90;;;;;;5095736;28;20348;-51
2021/12/04 14:15:58;;;;;;;;;;;5.70;99.90;;;;;;5094648;28;20386;-51
2021/12/04 14:18:26;;;;;;;;;;;5.80;99.90;;;;;;5096443;28;20057;-51
2021/12/04 14:20:54;;;;;;;;;;;5.70;99.90;;;;;;5108817;28;19928;-52
2021/12/04 14:23:23;;;;;;;;;;;5.60;99.90;;;;;;5108321;28;19978;-52
2021/12/04 14:25:54;;;;;;;;;;;5.60;99.90;;;;;;5094360;28;20386;-52
2021/12/04 14:28:24;;;;;;;;;;;5.50;99.90;;;;;;5094414;28;20366;-52
2021/12/04 14:30:52;;;;;;;;;;;5.60;99.90;;;;;;5096698;28;19927;-51
2021/12/04 14:33:20;;;;;;;;;;;5.70;99.90;;;;;;5099825;28;19928;-52
2021/12/04 14:35:47;;;;;;;;;;;5.90;99.90;;;;;;5094187;28;20383;-51
2021/12/04 14:38:15;;;;;;;;;;;6.10;99.90;;;;;;5099280;28;19924;-52
2021/12/04 14:40:43;;;;;;;;;;;6.00;99.90;;;;;;5096679;28;19924;-52
2021/12/04 14:43:11;;;;;;;;;;;6.20;99.90;;;;;;5094255;28;19924;-52
2021/12/04 14:45:40;;;;;;;;;;;5.90;99.90;;;;;;5093958;28;19977;-52
2021/12/04 14:48:08;;;;;;;;;;;5.90;99.90;;;;;;5094083;28;19931;-52
2021/12/04 14:50:37;;;;;;;;;;;5.90;99.90;;;;;;5096343;28;19924;-52
2021/12/04 14:53:05;;;;;;;;;;;5.80;99.90;;;;;;5093829;28;19928;-51
2021/12/04 14:55:33;;;;;;;;;;;5.80;99.90;;;;;;5094119;28;19924;-52
2021/12/04 14:58:01;;;;;;;;;;;5.90;99.90;;;;;;5099784;28;19985;-52
2021/12/04 15:00:29;;;;;;;;;;;5.90;99.90;;;;;;5094046;28;19930;-52
2021/12/04 15:02:59;;;;;;;;;;;5.80;99.90;;;;;;5093864;28;19935;-52
2021/12/04 15:05:28;;;;;;;;;;;6.00;99.90;;;;;;5109419;28;19938;-52
2021/12/04 15:08:05;;;;;;;;;;;5.90;99.90;;;;;;5114134;28;19927;-52
2021/12/04 15:10:32;;;;;;;;;;;5.80;99.90;;;;;;5100902;28;19924;-51
2021/12/04 15:12:59;;;;;;;;;;;5.90;99.90;;;;;;5093326;28;19924;-52
2021/12/04 15:15:28;;;;;;;;;;;6.00;99.90;;;;;;5094690;28;19924;-51
2021/12/04 15:17:55;;;;;;;;;;;6.00;99.90;;;;;;5098806;28;20386;-52
2021/12/04 15:20:30;;;;;;;;;;;5.90;99.90;;;;;;5103215;28;19936;-51
2021/12/04 15:22:59;;;;;;;;;;;6.00;99.90;;;;;;5093205;28;19971;-52
2021/12/04 15:25:30;;;;;;;;;;;5.90;99.90;;;;;;5093172;28;19935;-52
2021/12/04 15:27:57;;;;;;;;;;;6.00;99.90;;;;;;5093391;28;19924;-52
2021/12/04 15:30:25;;;;;;;;;;;6.00;99.90;;;;;;5111436;27;19925;-51
2021/12/04 15:32:53;;;;;;;;;;;6.10;99.90;;;;;;5113041;28;19962;-51
2021/12/04 15:35:28;;;;;;;;;;;6.00;99.90;;;;;;5112846;28;19928;-52
2021/12/04 15:38:03;;;;;;;;;;;6.10;99.90;;;;;;5113220;28;19931;-51
2021/12/04 15:40:36;;;;;;;;;;;6.10;99.90;;;;;;5100560;28;20027;-51
2021/12/04 15:43:11;;;;;;;;;;;6.00;99.90;;;;;;5107575;28;19924;-51
2021/12/04 15:45:48;;;;;;;;;;;6.10;99.90;;;;;;5112793;28;19924;-51
2021/12/04 15:48:34;;;;;;;;;;;6.00;99.90;;;;;;5112916;28;19953;-52
2021/12/04 15:51:30;;;;;;;;;;;5.90;99.90;;;;;;5102347;28;19931;-51
2021/12/04 15:54:03;;;;;;;;;;;5.90;99.90;;;;;;5113002;28;19963;-52
2021/12/04 15:56:31;;;;;;;;;;;6.00;99.90;;;;;;5108159;28;20302;-52
2021/12/04 15:58:58;;;;;;;;;;;6.00;99.90;;;;;;5125630;27;20347;-52
2021/12/04 16:01:27;;;;;;;;;;;6.00;99.90;;;;;;5109291;28;19932;-52
2021/12/04 16:03:54;;;;;;;;;;;6.00;99.90;;;;;;5103678;28;19924;-52
2021/12/04 16:06:21;;;;;;;;;;;6.00;99.90;;;;;;5113066;28;20018;-52
2021/12/04 16:08:48;;;;;;;;;;;6.00;99.90;;;;;;5112918;28;19971;-52
2021/12/04 16:11:17;;;;;;;;;;;5.90;99.90;;;;;;5112347;28;19961;-52
2021/12/04 16:13:49;;;;;;;;;;;6.10;99.90;;;;;;5117303;27;19924;-52
2021/12/04 16:16:18;;;;;;;;;;;6.20;99.90;;;;;;5120584;27;19960;-52
2021/12/04 16:18:45;;;;;;;;;;;6.20;99.90;;;;;;5111052;28;19932;-52
2021/12/04 16:21:13;;;;;;;;;;;6.30;99.90;;;;;;5093377;28;19985;-52
2021/12/04 16:23:41;;;;;;;;;;;6.20;99.90;;;;;;5095673;28;20397;-52
2021/12/04 16:26:11;;;;;;;;;;;6.10;99.90;;;;;;5111159;28;19939;-52
2021/12/04 16:31:37;;;;;;;;;;;6.00;99.90;;;;;;5095756;28;20365;-51
2021/12/04 16:35:04;;;;;;;;;;;6.10;99.90;;;;;;5110521;28;20015;-52
2021/12/04 16:37:04;;;;;;;;;;;6.20;99.90;;;;;;5111651;28;19924;-52
2021/12/04 16:39:32;;;;;;;;;;;6.20;99.90;;;;;;5106743;28;19924;-51
2021/12/04 16:41:59;;;;;;;;;;;6.20;99.90;;;;;;5112270;28;19924;-52
2021/12/04 16:44:27;;;;;;;;;;;6.20;99.90;;;;;;5111095;28;19924;-52
2021/12/04 16:46:54;;;;;;;;;;;6.30;99.90;;;;;;5112131;28;19977;-53
2021/12/04 16:49:22;;;;;;;;;;;6.40;99.90;;;;;;5103280;28;19928;-51
2021/12/04 16:55:07;;;;;;;;;;;6.40;99.90;;;;;;5050651;28;19928;-52
2021/12/04 16:57:49;;;;;;;;;;;6.40;99.90;;;;;;5053639;28;20019;-52
2021/12/04 17:00:19;;;;;;;;;;;6.50;99.90;;;;;;5094852;28;19935;-52
2021/12/04 17:02:46;;;;;;;;;;;6.50;99.90;;;;;;5115669;28;19968;-52
2021/12/04 17:05:14;;;;;;;;;;;6.50;99.90;;;;;;5115834;28;19953;-52
2021/12/04 17:07:41;;;;;;;;;;;6.30;99.90;;;;;;5101341;28;19977;-52
2021/12/04 17:10:09;;;;;;;;;;;6.10;99.90;;;;;;5106094;28;19927;-52